Time;durP1;ratioP1;P1;durP2;ratioP2;P2;SDS_P1;SDS_P2;PMS_P1;PMS_P2;Temp;Humidity;BMP_temperature;BMP_pressure;BME280_temperature;BME280_humidity;BME280_pressure;Samples;Min_cycle;Max_cycle;Signal;HPM_P1;HPM_P2
2021/04/27 00:01:11;;;;;;;6.65;3.13;;;;;;;4.70;100.00;101522.34;6151898;23;20021;-78
2021/04/27 00:03:36;;;;;;;10.57;3.03;;;;;;;4.68;100.00;101514.50;6152063;23;20012;-78
2021/04/27 00:06:02;;;;;;;10.98;3.67;;;;;;;4.65;100.00;101506.66;6152951;23;20009;-77
2021/04/27 00:08:28;;;;;;;5.15;2.78;;;;;;;4.64;100.00;101511.03;6152307;23;20675;-77
2021/04/27 00:10:54;;;;;;;11.88;3.15;;;;;;;4.57;100.00;101512.00;6150309;23;20002;-78
2021/04/27 00:13:19;;;;;;;6.63;2.90;;;;;;;4.53;100.00;101506.78;6150751;23;20020;-78
2021/04/27 00:15:45;;;;;;;5.93;2.78;;;;;;;4.56;100.00;101510.22;6150807;23;20006;-79
2021/04/27 00:18:10;;;;;;;9.20;3.47;;;;;;;4.48;100.00;101508.59;6151695;23;20012;-78
2021/04/27 00:20:35;;;;;;;8.20;3.58;;;;;;;4.57;100.00;101511.13;6150517;23;20412;-78
2021/04/27 00:23:01;;;;;;;7.72;4.25;;;;;;;4.49;100.00;101505.94;6148864;23;20020;-77
2021/04/27 00:25:27;;;;;;;7.45;3.75;;;;;;;4.41;100.00;101495.53;6151198;23;20536;-77
2021/04/27 00:27:54;;;;;;;5.88;4.15;;;;;;;4.43;100.00;101489.44;6151412;23;20032;-77
2021/04/27 00:30:21;;;;;;;8.98;4.40;;;;;;;4.40;100.00;101487.69;6151266;23;20009;-77
2021/04/27 00:32:48;;;;;;;10.70;3.85;;;;;;;4.39;100.00;101480.72;6151693;23;20005;-78
2021/04/27 00:35:15;;;;;;;8.15;3.90;;;;;;;4.37;100.00;101478.13;6152179;23;20013;-77
2021/04/27 00:37:40;;;;;;;10.40;3.97;;;;;;;4.36;100.00;101483.38;6149603;23;20520;-78
2021/04/27 00:40:07;;;;;;;8.93;3.80;;;;;;;4.28;100.00;101462.50;6173936;23;20016;-78
2021/04/27 00:42:36;;;;;;;12.38;3.88;;;;;;;4.27;100.00;101467.75;6150863;23;20423;-77
2021/04/27 00:45:05;;;;;;;10.60;3.65;;;;;;;4.29;100.00;101459.00;6152382;23;20009;-77
2021/04/27 00:47:31;;;;;;;5.53;3.35;;;;;;;4.27;100.00;101463.41;6158544;23;20009;-78
2021/04/27 00:49:56;;;;;;;11.07;3.33;;;;;;;4.18;100.00;101449.53;6154662;23;20041;-77
2021/04/27 00:52:23;;;;;;;9.35;3.75;;;;;;;4.12;100.00;101450.44;6154279;23;20043;-77
2021/04/27 00:54:51;;;;;;;5.40;3.30;;;;;;;4.04;100.00;101449.63;6155140;23;20008;-78
2021/04/27 00:57:17;;;;;;;5.90;3.10;;;;;;;4.09;100.00;101445.22;6151920;23;20016;-79
2021/04/27 00:59:42;;;;;;;5.72;3.30;;;;;;;4.06;100.00;101434.78;6153119;23;20016;-78
2021/04/27 01:02:07;;;;;;;6.95;3.20;;;;;;;4.09;100.00;101437.38;6152595;23;20012;-78
2021/04/27 01:04:34;;;;;;;8.13;3.15;;;;;;;4.06;100.00;101435.63;6154215;23;20033;-77
2021/04/27 01:06:59;;;;;;;6.32;3.10;;;;;;;4.03;100.00;101434.81;6150762;23;20440;-78
2021/04/27 01:09:49;;;;;;;9.90;3.95;;;;;;;3.98;100.00;101427.00;6153935;23;20060;-77
2021/04/27 01:12:36;;;;;;;5.85;3.42;;;;;;;4.04;100.00;101431.31;6168926;23;20469;-78
2021/04/27 01:15:12;;;;;;;10.63;3.38;;;;;;;4.01;100.00;101429.56;6182465;23;20108;-78
2021/04/27 01:17:38;;;;;;;;;;;;;;;3.94;100.00;101430.53;6182784;23;20009;-77
2021/04/27 01:20:03;;;;;;;;;;;;;;;3.97;100.00;101432.25;6155892;23;19955;-78
2021/04/27 01:22:58;;;;;;;8.23;3.13;;;;;;;3.85;100.00;101427.97;6183226;23;20278;-78
2021/04/27 01:25:43;;;;;;;9.02;4.13;;;;;;;3.92;100.00;101428.81;6128604;23;20419;-78
2021/04/27 01:28:10;;;;;;;5.13;3.38;;;;;;;3.89;100.00;101427.94;6154601;23;20008;-78
2021/04/27 01:30:38;;;;;;;5.38;3.30;;;;;;;3.80;100.00;101430.63;6178530;23;20033;-77
2021/04/27 01:33:09;;;;;;;3.63;2.63;;;;;;;3.77;100.00;101421.94;6180050;23;20312;-77
2021/04/27 01:35:35;;;;;;;11.05;3.40;;;;;;;3.70;100.00;101425.47;6179313;23;20432;-78
2021/04/27 01:38:01;;;;;;;5.57;2.67;;;;;;;3.64;100.00;101424.63;6154805;23;20041;-78
2021/04/27 01:40:27;;;;;;;7.60;3.50;;;;;;;3.62;100.00;101431.63;6182980;23;20009;-78
2021/04/27 01:42:53;;;;;;;4.25;2.78;;;;;;;3.63;100.00;101425.50;6155854;23;20013;-78
2021/04/27 01:45:19;;;;;;;7.07;2.92;;;;;;;3.60;100.00;101422.03;6155177;23;20335;-78
2021/04/27 01:47:44;;;;;;;5.55;3.50;;;;;;;3.63;100.00;101416.81;6180292;23;20122;-77
2021/04/27 01:50:10;;;;;;;4.43;2.67;;;;;;;3.63;100.00;101414.19;6153072;23;20148;-78
2021/04/27 01:52:36;;;;;;;5.65;3.00;;;;;;;3.52;100.00;101418.63;6179933;23;19997;-78
2021/04/27 01:55:04;;;;;;;5.38;2.85;;;;;;;3.53;100.00;101402.91;6155615;23;20004;-78
2021/04/27 01:57:29;;;;;;;4.85;3.35;;;;;;;3.56;100.00;101407.25;6181988;23;20001;-78
2021/04/27 01:59:55;;;;;;;6.25;2.88;;;;;;;3.48;100.00;101407.31;6186300;23;20396;-77
2021/04/27 02:02:20;;;;;;;10.75;3.72;;;;;;;3.42;100.00;101403.88;6162423;23;20360;-78
2021/04/27 02:04:45;;;;;;;8.30;3.05;;;;;;;3.38;100.00;101397.78;6183386;23;20009;-77
2021/04/27 02:07:11;;;;;;;9.02;3.40;;;;;;;3.35;100.00;101396.06;6181094;23;20005;-78
2021/04/27 02:09:36;;;;;;;6.43;3.40;;;;;;;3.27;100.00;101395.25;6180696;23;20001;-78
2021/04/27 02:12:01;;;;;;;5.28;2.75;;;;;;;3.26;100.00;101388.28;6180595;23;20017;-78
2021/04/27 02:14:29;;;;;;;5.03;3.05;;;;;;;3.23;100.00;101393.53;6155220;23;20005;-77
2021/04/27 02:17:36;;;;;;;9.55;2.75;;;;;;;3.23;100.00;101392.66;6180052;23;20005;-77
2021/04/27 02:20:03;;;;;;;8.88;3.30;;;;;;;3.28;100.00;101401.34;6088140;23;20007;-77
2021/04/27 02:22:29;;;;;;;5.93;2.90;;;;;;;3.23;100.00;101392.66;6087126;23;20011;-77
2021/04/27 02:24:55;;;;;;;6.97;3.50;;;;;;;3.33;100.00;101396.94;6087296;23;20097;-77
2021/04/27 02:27:21;;;;;;;4.28;3.08;;;;;;;3.24;100.00;101386.56;6087608;23;20029;-77
2021/04/27 02:29:47;;;;;;;8.18;3.17;;;;;;;3.15;100.00;101390.06;6086853;23;20013;-77
2021/04/27 02:32:13;;;;;;;8.07;3.45;;;;;;;3.16;100.00;101389.19;6086974;23;20010;-78
2021/04/27 02:34:39;;;;;;;5.18;3.25;;;;;;;3.21;100.00;101384.81;6087853;23;20010;-77
2021/04/27 02:37:05;;;;;;;6.75;2.88;;;;;;;3.23;100.00;101388.28;6088147;23;20452;-79
2021/04/27 02:39:30;;;;;;;11.70;3.30;;;;;;;3.14;100.00;101383.13;6089553;23;20126;-79
2021/04/27 02:41:56;;;;;;;5.00;3.42;;;;;;;3.12;100.00;101377.03;6089989;23;20017;-79
2021/04/27 02:44:22;;;;;;;9.40;3.53;;;;;;;3.11;100.00;101378.78;6091709;23;20017;-79
2021/04/27 02:46:47;;;;;;;9.27;3.78;;;;;;;3.16;100.00;101383.97;6088778;23;20394;-78
2021/04/27 02:49:13;;;;;;;10.20;4.32;;;;;;;3.05;100.00;101376.19;6090734;23;20436;-79
2021/04/27 02:51:39;;;;;;;6.57;4.45;;;;;;;2.97;100.00;101366.69;6170882;23;20132;-79
2021/04/27 02:54:05;;;;;;;5.60;3.30;;;;;;;3.03;100.00;101359.66;6153786;23;20008;-77
2021/04/27 02:56:32;;;;;;;5.60;3.33;;;;;;;3.00;100.00;101367.50;6153244;23;20063;-78
2021/04/27 02:58:57;;;;;;;8.73;4.18;;;;;;;2.98;100.00;101361.44;6152358;23;20013;-78
2021/04/27 03:01:22;;;;;;;7.43;3.85;;;;;;;2.98;100.00;101355.34;6151944;23;20001;-78
2021/04/27 03:03:48;;;;;;;9.18;3.83;;;;;;;2.92;100.00;101358.88;6180345;23;20502;-79
2021/04/27 03:06:13;;;;;;;9.45;4.25;;;;;;;2.90;100.00;101357.13;6180714;23;20013;-79
2021/04/27 03:08:38;;;;;;;6.28;3.40;;;;;;;2.82;100.00;101354.56;6180083;23;20008;-78
2021/04/27 03:11:04;;;;;;;6.97;4.75;;;;;;;2.95;100.00;101348.38;6179186;23;20084;-78
2021/04/27 03:13:29;;;;;;;11.85;3.95;;;;;;;2.87;100.00;101349.31;6153429;23;20442;-78
2021/04/27 03:15:55;;;;;;;10.65;3.80;;;;;;;2.89;100.00;101344.94;6179841;23;20416;-78
2021/04/27 03:18:20;;;;;;;6.85;4.30;;;;;;;2.84;100.00;101340.59;6180725;23;20372;-79
2021/04/27 03:20:46;;;;;;;6.75;3.78;;;;;;;2.84;100.00;101329.31;6179513;23;20005;-78
2021/04/27 03:23:12;;;;;;;8.23;4.10;;;;;;;2.82;100.00;101333.69;6180548;23;20635;-78
2021/04/27 03:25:38;;;;;;;10.30;4.43;;;;;;;2.88;100.00;101333.63;6181251;23;20016;-78
2021/04/27 03:28:05;;;;;;;7.60;3.22;;;;;;;2.87;100.00;101331.03;6181534;23;20033;-78
2021/04/27 03:30:30;;;;;;;6.13;3.75;;;;;;;2.82;100.00;101334.53;6154287;23;20064;-79
2021/04/27 03:32:56;;;;;;;6.57;3.60;;;;;;;2.83;100.00;101328.44;6183381;23;20012;-78
2021/04/27 03:35:21;;;;;;;6.93;3.75;;;;;;;2.83;100.00;101324.97;6156152;23;20016;-78
2021/04/27 03:37:47;;;;;;;5.35;4.07;;;;;;;2.80;100.00;101333.66;6183227;23;20005;-79
2021/04/27 03:40:12;;;;;;;6.38;3.67;;;;;;;2.87;100.00;101336.25;6181757;23;20012;-78
2021/04/27 03:42:38;;;;;;;5.90;3.08;;;;;;;2.90;100.00;101334.47;6183996;23;20011;-79
2021/04/27 03:45:07;;;;;;;7.15;3.80;;;;;;;2.87;100.00;101334.53;6183496;23;20012;-79
2021/04/27 03:47:32;;;;;;;4.85;3.55;;;;;;;2.90;100.00;101331.00;6157232;23;20008;-79
2021/04/27 03:49:58;;;;;;;10.07;3.75;;;;;;;2.83;100.00;101327.56;6182156;23;20480;-79
2021/04/27 03:52:23;;;;;;;10.02;3.85;;;;;;;2.79;100.00;101316.25;6182055;23;20904;-78
2021/04/27 03:54:49;;;;;;;7.82;3.92;;;;;;;2.76;100.00;101320.63;6182871;23;20013;-78
2021/04/27 03:57:14;;;;;;;13.13;3.80;;;;;;;2.72;100.00;101314.56;6182471;23;20016;-78
2021/04/27 03:59:39;;;;;;;7.68;5.15;;;;;;;2.72;100.00;101313.72;6182059;23;20009;-78
2021/04/27 04:02:04;;;;;;;8.57;4.15;;;;;;;2.76;100.00;101316.31;6181070;23;20016;-77
2021/04/27 04:04:30;;;;;;;7.25;4.15;;;;;;;2.75;100.00;101317.16;6183121;23;20052;-78
2021/04/27 04:06:55;;;;;;;5.85;3.85;;;;;;;2.68;100.00;101318.06;6156058;23;20055;-78
2021/04/27 04:09:20;;;;;;;10.85;3.97;;;;;;;2.66;100.00;101316.31;6155598;23;20351;-78
2021/04/27 04:11:45;;;;;;;8.13;4.05;;;;;;;2.62;100.00;101312.00;6181966;23;20071;-78
2021/04/27 04:14:11;;;;;;;9.32;4.07;;;;;;;2.62;100.00;101304.19;6181984;23;20009;-78
2021/04/27 04:16:37;;;;;;;7.20;3.83;;;;;;;2.61;100.00;101316.38;6181968;23;20013;-78
2021/04/27 04:19:03;;;;;;;15.68;4.47;;;;;;;2.62;100.00;101307.66;6154826;23;20088;-78
2021/04/27 04:21:29;;;;;;;7.25;4.15;;;;;;;2.64;100.00;101312.88;6181705;23;20024;-78
2021/04/27 04:23:55;;;;;;;8.48;4.30;;;;;;;2.60;100.00;101310.25;6156076;23;20079;-78
2021/04/27 04:26:21;;;;;;;7.18;3.60;;;;;;;2.64;100.00;101313.72;6182474;23;20396;-78
2021/04/27 04:28:46;;;;;;;9.00;3.85;;;;;;;2.63;100.00;101316.34;6183044;23;20019;-77
2021/04/27 04:31:12;;;;;;;7.47;4.32;;;;;;;2.61;100.00;101305.94;6182824;23;20005;-78
2021/04/27 04:33:37;;;;;;;7.90;4.10;;;;;;;2.64;100.00;101313.72;6159937;23;20016;-78
2021/04/27 04:36:03;;;;;;;8.93;3.67;;;;;;;2.75;100.00;101319.75;6183196;23;20443;-78
2021/04/27 04:38:28;;;;;;;8.98;4.38;;;;;;;2.79;100.00;101308.44;6180622;23;20005;-78
2021/04/27 04:40:54;;;;;;;11.43;4.15;;;;;;;2.81;100.00;101300.59;6180270;23;19997;-77
2021/04/27 04:43:19;;;;;;;8.40;3.72;;;;;;;2.84;100.00;101290.13;6180323;23;20004;-78
2021/04/27 04:45:45;;;;;;;9.60;4.10;;;;;;;2.95;100.00;101296.16;6183882;23;20009;-77
2021/04/27 04:48:11;;;;;;;5.93;3.65;;;;;;;2.98;100.00;101293.53;6185939;23;20340;-78
2021/04/27 04:50:36;;;;;;;9.32;4.00;;;;;;;3.06;100.00;101298.69;6181573;23;20356;-78
2021/04/27 04:53:03;;;;;;;5.55;3.78;;;;;;;3.08;100.00;101300.44;6182610;23;20081;-77
2021/04/27 04:55:29;;;;;;;6.03;4.25;;;;;;;3.09;100.00;101301.31;6179385;23;20100;-77
2021/04/27 04:57:54;;;;;;;8.23;4.00;;;;;;;3.13;100.00;101296.94;6180702;23;19997;-77
2021/04/27 05:00:22;;;;;;;9.15;3.80;;;;;;;3.22;100.00;101292.53;6179406;23;20004;-77
2021/04/27 05:02:47;;;;;;;8.55;4.40;;;;;;;3.23;100.00;101303.84;6153913;23;20008;-78
2021/04/27 05:05:13;;;;;;;10.75;4.22;;;;;;;3.33;100.00;101301.16;6180194;23;20359;-78
2021/04/27 05:07:57;;;;;;;6.80;3.95;;;;;;;3.36;100.00;101289.78;6181009;23;20008;-78
2021/04/27 05:10:23;;;;;;;10.07;4.15;;;;;;;3.53;100.00;101284.44;6179732;23;20005;-78
2021/04/27 05:12:48;;;;;;;10.00;3.70;;;;;;;3.69;100.00;101286.03;6180702;23;20045;-78
2021/04/27 05:15:14;;;;;;;9.15;3.90;;;;;;;3.86;100.00;101284.13;6179230;23;20007;-77
2021/04/27 05:17:40;;;;;;;12.02;3.83;;;;;;;3.90;100.00;101284.97;6180470;23;20371;-78
2021/04/27 05:20:06;;;;;;;8.50;4.30;;;;;;;4.03;100.00;101290.94;6179597;23;20374;-78
2021/04/27 05:22:31;;;;;;;8.02;4.03;;;;;;;4.10;100.00;101285.63;6181092;23;20036;-78
2021/04/27 05:24:57;;;;;;;6.20;3.75;;;;;;;4.09;100.00;101288.28;6182646;23;20415;-79
2021/04/27 05:27:23;;;;;;;6.82;3.97;;;;;;;4.02;100.00;101284.84;6180068;23;20005;-77
2021/04/27 05:29:48;;;;;;;8.23;4.07;;;;;;;4.08;100.00;101286.53;6180307;23;20004;-78
2021/04/27 05:32:13;;;;;;;7.53;4.22;;;;;;;4.30;100.00;101287.16;6178770;23;20080;-78
2021/04/27 05:34:39;;;;;;;6.65;4.25;;;;;;;4.51;100.00;101291.25;6180564;23;20013;-79
2021/04/27 05:37:04;;;;;;;8.88;4.10;;;;;;;4.57;100.00;101291.22;6152313;23;20055;-78
2021/04/27 05:39:30;;;;;;;7.38;4.45;;;;;;;4.59;100.00;101295.53;6178621;23;20408;-78
2021/04/27 05:41:56;;;;;;;8.85;4.20;;;;;;;4.66;100.00;101291.06;6178386;23;20794;-78
2021/04/27 05:44:21;;;;;;;9.25;4.13;;;;;;;4.76;100.00;101297.06;6178423;23;20024;-78
2021/04/27 05:46:47;;;;;;;7.75;5.00;;;;;;;4.78;100.00;101287.44;6177915;23;20627;-78
2021/04/27 05:49:12;;;;;;;8.90;4.63;;;;;;;4.83;100.00;101290.88;6177384;23;20827;-77
2021/04/27 05:51:37;;;;;;;10.05;4.35;;;;;;;4.95;100.00;101288.06;6151517;23;20011;-78
2021/04/27 05:54:03;;;;;;;8.18;3.78;;;;;;;4.99;100.00;101289.75;6177487;23;20363;-78
2021/04/27 05:56:29;;;;;;;15.68;4.70;;;;;;;4.92;100.00;101293.38;6179747;23;20001;-78
2021/04/27 05:58:54;;;;;;;8.40;4.85;;;;;;;5.07;100.00;101289.63;6180942;23;20052;-78
2021/04/27 06:01:19;;;;;;;10.45;4.47;;;;;;;5.14;100.00;101292.16;6181707;23;20394;-78
2021/04/27 06:03:45;;;;;;;8.95;4.32;;;;;;;5.08;100.00;101294.00;6179444;23;20005;-79
2021/04/27 06:06:10;;;;;;;7.82;4.65;;;;;;;5.12;100.00;101293.06;6180301;23;20005;-79
2021/04/27 06:08:36;;;;;;;10.15;4.63;;;;;;;5.06;100.00;101298.38;6179528;23;20033;-79
2021/04/27 06:11:04;;;;;;;5.95;4.15;;;;;;;5.22;100.00;101302.53;6180127;23;20678;-80
2021/04/27 06:13:30;;;;;;;6.97;4.35;;;;;;;5.40;100.00;101294.38;6153980;23;20325;-80
2021/04/27 06:15:55;;;;;;;6.35;4.22;;;;;;;5.27;100.00;101300.72;6180031;23;20012;-78
2021/04/27 06:18:21;;;;;;;10.00;6.05;;;;;;;5.49;100.00;101292.50;6175590;23;20005;-78
2021/04/27 06:20:46;;;;;;;11.38;5.43;;;;;;;5.55;100.00;101300.25;6177820;23;20033;-78
2021/04/27 06:23:11;;;;;;;10.07;5.40;;;;;;;5.60;100.00;101299.28;6177832;23;20005;-78
2021/04/27 06:25:37;;;;;;;14.15;4.60;;;;;;;5.65;100.00;101294.84;6178437;23;20009;-78
2021/04/27 06:28:02;;;;;;;10.07;4.72;;;;;;;5.77;100.00;101292.88;6185302;23;20008;-79
2021/04/27 06:30:27;;;;;;;7.97;4.50;;;;;;;5.81;100.00;101291.94;6188458;23;20009;-78
2021/04/27 06:32:53;;;;;;;5.80;4.43;;;;;;;5.97;100.00;101298.69;6154941;23;20420;-79
2021/04/27 06:35:25;;;;;;;6.93;4.38;;;;;;;6.09;100.00;101289.75;6155032;23;20009;-79
2021/04/27 06:37:51;;;;;;;9.32;4.78;;;;;;;5.98;100.00;101287.31;6179182;23;20005;-79
2021/04/27 06:40:16;;;;;;;10.20;5.63;;;;;;;6.10;100.00;101279.19;6177928;23;20013;-79
2021/04/27 06:42:42;;;;;;;7.68;4.38;;;;;;;6.19;100.00;101281.66;6179675;23;20729;-79
2021/04/27 06:45:08;;;;;;;11.68;4.80;;;;;;;6.15;100.00;101276.50;6177235;23;20005;-78
2021/04/27 06:47:33;;;;;;;6.78;4.85;;;;;;;6.18;100.00;101281.69;6178687;23;20079;-79
2021/04/27 06:49:58;;;;;;;8.45;4.28;;;;;;;6.41;100.00;101289.09;6177696;23;20001;-79
2021/04/27 06:52:25;;;;;;;9.52;4.95;;;;;;;6.46;100.00;101280.22;6179597;23;20052;-78
2021/04/27 06:54:50;;;;;;;8.98;4.72;;;;;;;6.57;100.00;101280.00;6181398;23;20009;-79
2021/04/27 06:57:15;;;;;;;6.68;4.60;;;;;;;6.63;100.00;101279.03;6179864;23;20165;-79
2021/04/27 06:59:41;;;;;;;9.93;4.63;;;;;;;6.69;99.69;101274.50;6168670;23;20012;-79
2021/04/27 07:02:07;;;;;;;8.23;4.07;;;;;;;6.84;99.26;101280.34;6177955;23;20056;-79
2021/04/27 07:04:34;;;;;;;9.20;4.95;;;;;;;6.85;99.36;101268.94;6179579;23;20013;-78
2021/04/27 07:06:59;;;;;;;9.40;4.38;;;;;;;6.95;98.53;101268.69;6182061;23;20323;-79
2021/04/27 07:09:25;;;;;;;9.95;4.03;;;;;;;7.18;97.52;101265.53;6181398;23;20024;-79
2021/04/27 07:11:50;;;;;;;7.13;4.88;;;;;;;7.37;96.37;101265.94;6182057;23;20088;-79
2021/04/27 07:14:16;;;;;;;7.82;3.97;;;;;;;7.70;94.20;101258.13;6180077;23;20438;-79
2021/04/27 07:16:41;;;;;;;14.68;5.18;;;;;;;7.81;93.55;101255.19;6186465;23;20009;-79
2021/04/27 07:19:06;;;;;;;7.07;4.30;;;;;;;7.90;92.59;101258.44;6186845;23;20037;-78
2021/04/27 07:21:33;;;;;;;6.63;4.63;;;;;;;7.97;92.14;101261.78;6159144;23;19997;-78
2021/04/27 07:23:59;;;;;;;7.60;4.40;;;;;;;8.20;91.18;101259.38;6194491;23;19997;-78
2021/04/27 07:26:25;;;;;;;8.35;5.03;;;;;;;8.28;90.72;101270.56;6183313;23;20032;-79
2021/04/27 07:28:50;;;;;;;8.55;4.70;;;;;;;8.42;89.54;101264.94;6181575;23;20028;-79
2021/04/27 07:31:16;;;;;;;12.02;5.38;;;;;;;8.55;89.03;101255.78;6180865;23;20009;-78
2021/04/27 07:33:41;;;;;;;8.95;4.65;;;;;;;8.54;87.88;101254.06;6182516;23;20420;-78
2021/04/27 07:36:07;;;;;;;8.38;4.97;;;;;;;8.47;87.29;101244.59;6180589;23;20009;-78
2021/04/27 07:38:35;;;;;;;6.50;4.60;;;;;;;8.54;87.28;101248.78;6180741;23;20408;-79
2021/04/27 07:41:01;;;;;;;6.35;4.35;;;;;;;8.95;85.57;101246.66;6180253;23;20628;-79
2021/04/27 07:43:26;;;;;;;7.28;4.30;;;;;;;8.85;85.94;101247.00;6173589;23;20016;-79
2021/04/27 07:45:51;;;;;;;9.18;4.70;;;;;;;9.05;85.17;101241.97;6177724;23;20499;-79
2021/04/27 07:48:17;;;;;;;12.40;4.90;;;;;;;9.50;83.39;101229.03;6153177;23;20114;-78
2021/04/27 07:50:42;;;;;;;9.90;5.80;;;;;;;9.36;83.66;101233.06;6153143;23;20119;-79
2021/04/27 07:53:07;;;;;;;11.88;4.47;;;;;;;9.52;82.10;101234.25;6179907;23;20099;-79
2021/04/27 07:55:33;;;;;;;6.47;4.95;;;;;;;9.53;82.16;101241.25;6153029;23;20028;-79
2021/04/27 07:57:58;;;;;;;11.90;5.43;;;;;;;9.55;80.66;101227.13;6178591;23;20005;-79
2021/04/27 08:00:24;;;;;;;7.45;4.88;;;;;;;9.49;79.96;101226.47;6151899;23;20093;-79
2021/04/27 08:02:51;;;;;;;9.35;4.47;;;;;;;9.51;78.85;101222.00;6180869;23;20004;-79
2021/04/27 08:05:19;;;;;;;12.93;5.32;;;;;;;9.88;76.99;101229.47;6155821;23;20470;-79
2021/04/27 08:07:45;;;;;;;10.38;5.05;;;;;;;10.07;76.88;101227.06;6181916;23;20391;-79
2021/04/27 08:10:13;;;;;;;7.75;4.22;;;;;;;10.12;76.48;101235.66;6181213;23;20108;-79
2021/04/27 08:12:41;;;;;;;8.98;4.25;;;;;;;10.06;76.05;101234.13;6156111;23;20013;-79
2021/04/27 08:15:07;;;;;;;8.65;4.32;;;;;;;10.38;75.37;101230.31;6181296;23;20080;-79
2021/04/27 08:17:33;;;;;;;10.55;5.05;;;;;;;10.63;74.29;101227.59;6181801;23;20059;-79
2021/04/27 08:19:58;;;;;;;7.20;4.85;;;;;;;10.75;74.57;101220.16;6181256;23;20005;-80
2021/04/27 08:22:23;;;;;;;11.40;5.32;;;;;;;10.68;75.04;101218.66;6180998;23;20573;-77
2021/04/27 08:24:49;;;;;;;8.63;5.30;;;;;;;11.02;71.24;101218.19;6154187;23;20155;-77
2021/04/27 08:27:15;;;;;;;7.47;5.10;;;;;;;10.97;70.99;101207.78;6180739;23;20031;-77
2021/04/27 08:29:41;;;;;;;15.43;5.45;;;;;;;11.21;70.29;101213.88;6180352;23;20036;-78
2021/04/27 08:32:07;;;;;;;10.10;5.78;;;;;;;10.84;71.77;101206.53;6180960;23;20005;-79
2021/04/27 08:34:34;;;;;;;9.25;4.95;;;;;;;11.06;71.19;101212.72;6180886;23;20036;-77
2021/04/27 08:37:03;;;;;;;7.88;4.53;;;;;;;10.97;66.24;101210.44;6156460;23;20024;-79
2021/04/27 08:39:28;;;;;;;9.88;5.45;;;;;;;10.95;65.01;101199.06;6179295;23;20828;-79
2021/04/27 08:41:54;;;;;;;9.82;5.18;;;;;;;11.29;65.77;101206.47;6180292;23;20075;-77
2021/04/27 08:44:20;;;;;;;14.88;7.18;;;;;;;11.48;64.47;101211.00;6179911;23;20060;-77
2021/04/27 08:46:46;;;;;;;7.43;4.47;;;;;;;11.59;61.76;101206.09;6179744;23;20040;-78
2021/04/27 08:49:12;;;;;;;10.88;5.30;;;;;;;11.69;60.10;101202.13;6178852;23;20009;-77
2021/04/27 08:51:37;;;;;;;8.70;4.53;;;;;;;11.95;60.87;101208.09;6154242;23;20347;-77
2021/04/27 08:54:07;;;;;;;9.10;4.80;;;;;;;12.12;61.67;101198.47;6179712;23;20000;-78
2021/04/27 08:56:33;;;;;;;8.05;5.38;;;;;;;12.52;59.84;101203.75;6180665;23;20012;-79
2021/04/27 08:58:58;;;;;;;10.02;5.25;;;;;;;12.53;59.06;101186.91;6179347;23;20009;-79
2021/04/27 09:01:24;;;;;;;12.88;5.03;;;;;;;12.41;57.65;101196.31;6179329;23;20005;-77
2021/04/27 09:03:51;;;;;;;9.00;5.03;;;;;;;12.01;60.03;101194.59;6179489;23;20012;-78
2021/04/27 09:06:19;;;;;;;13.77;5.65;;;;;;;12.04;57.43;101186.50;6153997;23;20009;-78
2021/04/27 09:08:46;;;;;;;8.63;5.00;;;;;;;12.05;59.48;101185.56;6180472;23;20072;-78
2021/04/27 09:11:33;;;;;;;9.90;4.93;;;;;;;12.16;59.86;101184.16;6180018;23;20009;-78
2021/04/27 09:14:18;;;;;;;6.68;4.97;;;;;;;12.18;58.65;101174.34;6153697;23;20065;-78
2021/04/27 09:16:45;;;;;;;10.48;4.50;;;;;;;12.25;60.61;101174.94;6154202;23;20016;-78
2021/04/27 09:19:10;;;;;;;11.23;4.75;;;;;;;12.46;59.84;101182.84;6179834;23;20088;-79
2021/04/27 09:21:37;;;;;;;8.70;5.30;;;;;;;12.41;57.88;101175.94;6180243;23;20795;-79
2021/04/27 09:24:17;;;;;;;7.25;4.60;;;;;;;11.80;56.34;101175.19;6154187;23;20016;-77
2021/04/27 09:26:51;;;;;;;8.18;5.00;;;;;;;12.23;58.65;101170.63;6151998;23;20016;-78
2021/04/27 09:29:28;;;;;;;9.05;4.50;;;;;;;12.69;57.35;101166.66;6166712;23;20005;-78
2021/04/27 09:31:53;;;;;;;8.02;4.50;;;;;;;12.86;54.66;101164.09;6176281;23;20617;-78
2021/04/27 09:34:27;;;;;;;12.55;6.43;;;;;;;13.07;53.08;101166.63;6176786;23;20012;-78
2021/04/27 09:37:12;;;;;;;8.52;4.50;;;;;;;13.02;50.49;101160.69;6179373;23;20047;-78
2021/04/27 09:39:44;;;;;;;7.97;5.15;;;;;;;13.29;49.77;101155.81;6176521;23;20005;-78
2021/04/27 09:42:24;;;;;;;8.75;4.63;;;;;;;13.59;49.20;101159.53;6152407;23;20008;-78
2021/04/27 09:44:51;;;;;;;8.77;4.93;;;;;;;13.84;47.42;101163.56;6179125;23;20009;-78
2021/04/27 09:47:19;;;;;;;11.40;4.65;;;;;;;13.84;46.58;101161.78;6178932;23;20529;-78
2021/04/27 09:50:00;;;;;;;8.10;4.38;;;;;;;14.10;47.71;101151.53;6177268;23;20001;-78
2021/04/27 09:52:27;;;;;;;9.13;4.88;;;;;;;14.00;46.16;101146.72;6179849;23;20005;-78
2021/04/27 09:55:04;;;;;;;8.00;4.57;;;;;;;14.11;46.19;101150.63;6180655;23;20151;-78
2021/04/27 09:57:33;;;;;;;8.98;4.07;;;;;;;14.45;44.83;101144.28;6179137;23;20668;-78
2021/04/27 10:00:28;;;;;;;10.30;4.55;;;;;;;14.34;43.62;101134.25;5064144;27;20358;-77
2021/04/27 10:02:55;;;;;;;11.05;4.35;;;;;;;14.33;43.97;101137.00;5065482;28;20032;-78
2021/04/27 10:05:20;;;;;;;8.77;4.47;;;;;;;14.43;43.01;101127.56;5066968;28;20047;-76
2021/04/27 10:07:47;;;;;;;12.60;4.35;;;;;;;14.69;43.15;101134.09;5054459;28;21625;-77
2021/04/27 10:10:14;;;;;;;7.32;4.07;;;;;;;14.93;41.55;101130.03;5063911;28;20028;-76
2021/04/27 10:12:40;;;;;;;12.35;3.90;;;;;;;15.12;41.12;101137.81;5069928;28;20075;-77
2021/04/27 10:15:07;;;;;;;6.03;4.65;;;;;;;15.46;40.85;101130.47;5066120;28;20513;-77
2021/04/27 10:17:33;;;;;;;11.77;5.10;;;;;;;15.73;40.18;101123.50;5063628;28;20491;-78
2021/04/27 10:20:00;;;;;;;4.97;3.80;;;;;;;15.99;39.68;101123.72;5066289;28;20405;-78
2021/04/27 10:22:27;;;;;;;6.82;3.97;;;;;;;16.25;39.13;101114.06;5066873;28;20032;-78
2021/04/27 10:24:55;;;;;;;9.48;4.55;;;;;;;16.37;38.70;101107.09;5065956;28;20051;-78
2021/04/27 10:27:28;;;;;;;9.20;4.55;;;;;;;16.36;39.27;101108.03;5063089;28;20070;-78
2021/04/27 10:30:17;;;;;;;8.95;4.60;;;;;;;17.02;38.05;101108.13;5062150;28;20020;-78
2021/04/27 10:33:01;;;;;;;7.20;4.03;;;;;;;17.00;37.37;101110.03;5077112;28;20086;-78
2021/04/27 10:35:27;;;;;;;9.88;4.47;;;;;;;17.44;36.85;101099.97;5070887;28;20032;-79
2021/04/27 10:38:18;;;;;;;14.88;5.40;;;;;;;17.78;35.42;101095.84;5066328;28;20115;-78
2021/04/27 10:41:03;;;;;;;7.82;4.97;;;;;;;19.17;32.99;101082.06;5065614;28;20157;-78
2021/04/27 10:43:34;;;;;;;11.70;6.30;;;;;;;19.98;31.92;101075.72;5063594;28;20079;-78
2021/04/27 10:46:01;;;;;;;10.48;4.93;;;;;;;21.30;30.17;101080.00;5066808;28;20052;-79
2021/04/27 10:48:26;;;;;;;15.23;5.35;;;;;;;21.82;29.42;101069.22;5073606;28;20066;-77
2021/04/27 10:50:52;;;;;;;12.53;5.27;;;;;;;20.07;29.32;101070.47;5063544;28;20041;-78
2021/04/27 10:53:34;;;;;;;7.78;4.72;;;;;;;20.68;28.49;101067.28;5063794;28;20596;-77
2021/04/27 10:56:00;;;;;;;9.27;4.72;;;;;;;20.62;27.37;101062.44;5065383;28;20102;-77
2021/04/27 10:58:46;;;;;;;7.13;4.63;;;;;;;21.08;26.41;101056.72;5063807;28;20056;-78
2021/04/27 11:01:28;;;;;;;7.63;4.45;;;;;;;21.59;26.15;101050.59;5067168;28;20029;-78
2021/04/27 11:03:56;;;;;;;8.52;4.28;;;;;;;22.78;25.05;101051.59;5070790;28;20033;-78
2021/04/27 11:06:22;;;;;;;11.57;4.80;;;;;;;21.86;25.46;101039.22;5067682;28;20044;-77
2021/04/27 11:08:57;;;;;;;9.32;4.88;;;;;;;22.41;24.86;101044.19;5061919;28;20029;-77
2021/04/27 11:11:31;;;;;;;12.15;5.35;;;;;;;22.61;24.58;101040.53;5051153;28;20040;-76
2021/04/27 11:14:12;;;;;;;14.43;5.97;;;;;;;21.78;25.03;101039.03;5047849;28;20033;-78
2021/04/27 11:16:38;;;;;;;9.80;5.65;;;;;;;22.92;23.76;101033.19;5060660;28;20037;-77
2021/04/27 11:19:18;;;;;;;6.82;4.50;;;;;;;22.62;23.67;101044.06;5049320;28;20159;-79
2021/04/27 11:21:45;;;;;;;8.63;6.10;;;;;;;21.88;24.22;101034.53;5040878;28;20029;-77
2021/04/27 11:24:29;;;;;;;8.80;4.40;;;;;;;22.61;23.77;101037.00;5046878;28;20020;-78
2021/04/27 11:26:56;;;;;;;7.78;4.20;;;;;;;23.78;22.82;101025.84;5052910;28;20033;-78